Airfield :
LOGIN :

Register | Disclaimer

   EN    FR    IT 

 










Legend :    VFR   Marginal VFR   IFR   Intensive IFR   Very Intensive IFR
Visi :
Ceiling :
>= 8 km
>= 3000ft
5 to 8 km
1000 to 3000 ft
1500m to 5 km
500 to 1000 ft
800 to 1500m
200 to 500 ft
< 800m
< 200 ft
Symbols :   Thunderstorms  Fog  Heavy snow  Heavy precipitations  Wind > 20 kt
SIGMETs :     Misc.  Thunderstorms  Icing  Turbulence  Mountain Waves  Volcanic Ashes






- Airport Elevation : 1504 ft
- IATA code : PNA


LEPP - Noain Pamplona

CURRENT METAR :
  • 110300Z AUTO 32009KT 290V010 9999 OVC026 16/13 Q1021

EXPIRED METARs :
  • 110230Z AUTO 33010KT 9999 OVC024 16/13 Q1021
  • 110200Z AUTO 32009KT 9999 OVC025 16/13 Q1021
  • 110130Z AUTO 32009KT 290V350 9999 OVC024 16/13 Q1021
  • 110100Z AUTO 32010KT 9999 OVC024 17/13 Q1021
  • 110030Z AUTO 31008KT 9999 OVC026 17/13 Q1022

TAF TAF LEPP
Valid from the 11 at 03:00 until the 12 at 03:00 UTC


110200Z 1103/1203 34009KT 9999 FEW010 SCT020 TX27/1115Z TN15/1105Z
PROB30
TEMPO 1103/1106 3000 BR BKN010



MET'MAP, your aeronautical weather chart ! - Copyright ORBIFLY December 2007 - Disclaimer

ORBIFLY MET'MAP TEAM :

Programming & Development : Alexandra Zaïnal
Concept & original design : Baudouin d'Aumeries
Assistance for programming : Marc-Olivier Méhu
Technical & hardware support : Manuel Goepfert

Contact : metmap@orbifly.com




SOURCES & CREDITS :

   NOAA